Norton, KS

2:30 AM CST on November 27, 2014 (GMT -0600)
Sarrada Farms 0.1 mi W | Change Station
CLOSE
Current Station
Personal Weather Station
Location: Logan, KS
Elevation: 2021 ft
Nearby Weather Stations

Elev 2021 ft 39.66 °N, 99.58 °W | Updated 0 second ago

Overcast
Overcast
25.2 °F
Feels Like 25 °F
N
2.9
Wind Variable Wind from ESE
Gusts 4.0 mph

Today
High -- | Low -- °F
--% Chance of Precip.
Yesterday
High -- | Low -- °F
Precip. -- in
7:37 AM 5:16 PM
Waxing Crescent, 27% visible
Pressure 30.47 in
Visibility 10.0 miles
Clouds Overcast 6500 ft
Windchill 25 °F
Dew Point 19 °F
Humidity 77%
Rainfall 0.00 in
Snow Depth Not available.
UV 0 out of 12
Pollen .10 out of 12
Air Quality Not available.
Flu Activity Not available.
METAR KHLC 270753Z AUTO 12004KT 10SM OVC065 M01/M08 A3042 RMK AO2 SLP318 T10111078

More Conditions Fewer Conditions

Pressure 30.47 in
Visibility 10.0 miles
Clouds Overcast 6500 ft
Windchill 25 °F
Dew Point 19 °F
Humidity 77%
Rainfall 0.00 in
Snow Depth Not available.
UV 0 out of 12
Pollen .10 out of 12
Air Quality Not available.
Flu Activity Not available.
METAR KHLC 270753Z AUTO 12004KT 10SM OVC065 M01/M08 A3042 RMK AO2 SLP318 T10111078

More Conditions Fewer Conditions

10-Day Weather Forecast

Almanac

Astronomy

Nov. 27, 2014 Rise Set
Actual Time
Civil Twilight
Nautical Twilight
Astronomical Twilight
Moon
Length of Visible Light
Length of Day
Tomorrow will be .
, % of the Moon is Illuminated

Today's Extremes

State Highs State Lows

Community

WunderPhotos

Upload Photos

1,773,965 photos uploaded!

WunderBlogs® & News

Nearby

Air Quality

  Air Quality AQ Index Pollutant
Not available.

Snow Depth

Station Depth Elevation

Earthquake Activity

City Distance Mag. Time & Date
Minimum magnitude displayed is 2.5.

Coastal Water Temperatures

Place Temperature

Nearby Weather Stations